sensor_id;sensor_type;location;lat;lon;timestamp;P1;durP1;ratioP1;P2;durP2;ratioP2
21299;SDS011;10809;49.476;11.016;2022-08-27T00:00:58;4.70;;;3.20;;
21299;SDS011;10809;49.476;11.016;2022-08-27T00:03:28;4.28;;;3.60;;
21299;SDS011;10809;49.476;11.016;2022-08-27T00:05:59;5.40;;;3.85;;
21299;SDS011;10809;49.476;11.016;2022-08-27T00:08:29;6.85;;;3.33;;
21299;SDS011;10809;49.476;11.016;2022-08-27T00:11:00;4.68;;;4.20;;
21299;SDS011;10809;49.476;11.016;2022-08-27T00:13:30;5.82;;;4.45;;
21299;SDS011;10809;49.476;11.016;2022-08-27T00:16:01;3.97;;;3.50;;
21299;SDS011;10809;49.476;11.016;2022-08-27T00:18:33;7.60;;;3.97;;
21299;SDS011;10809;49.476;11.016;2022-08-27T00:21:07;5.38;;;3.80;;
21299;SDS011;10809;49.476;11.016;2022-08-27T00:23:38;3.92;;;3.60;;
21299;SDS011;10809;49.476;11.016;2022-08-27T00:26:09;5.55;;;3.72;;
21299;SDS011;10809;49.476;11.016;2022-08-27T00:28:40;6.75;;;3.72;;
21299;SDS011;10809;49.476;11.016;2022-08-27T00:31:11;7.93;;;3.78;;
21299;SDS011;10809;49.476;11.016;2022-08-27T00:33:42;5.18;;;3.53;;
21299;SDS011;10809;49.476;11.016;2022-08-27T00:36:12;4.20;;;3.80;;
21299;SDS011;10809;49.476;11.016;2022-08-27T00:38:43;6.95;;;3.95;;
21299;SDS011;10809;49.476;11.016;2022-08-27T00:41:14;6.28;;;4.03;;
21299;SDS011;10809;49.476;11.016;2022-08-27T00:47:03;6.55;;;4.15;;
21299;SDS011;10809;49.476;11.016;2022-08-27T00:49:47;4.18;;;3.40;;
21299;SDS011;10809;49.476;11.016;2022-08-27T00:52:27;4.70;;;3.92;;
21299;SDS011;10809;49.476;11.016;2022-08-27T00:55:11;4.95;;;4.03;;
21299;SDS011;10809;49.476;11.016;2022-08-27T00:57:53;4.40;;;4.00;;
21299;SDS011;10809;49.476;11.016;2022-08-27T01:00:31;5.20;;;4.25;;
21299;SDS011;10809;49.476;11.016;2022-08-27T01:03:01;5.78;;;4.00;;
21299;SDS011;10809;49.476;11.016;2022-08-27T01:05:32;4.22;;;3.42;;
21299;SDS011;10809;49.476;11.016;2022-08-27T01:08:09;6.47;;;3.78;;
21299;SDS011;10809;49.476;11.016;2022-08-27T01:10:46;3.70;;;3.35;;
21299;SDS011;10809;49.476;11.016;2022-08-27T01:13:19;4.88;;;2.95;;
21299;SDS011;10809;49.476;11.016;2022-08-27T01:15:52;4.30;;;3.90;;
21299;SDS011;10809;49.476;11.016;2022-08-27T01:18:28;4.95;;;3.58;;
21299;SDS011;10809;49.476;11.016;2022-08-27T01:21:26;4.40;;;3.92;;
21299;SDS011;10809;49.476;11.016;2022-08-27T01:27:09;6.70;;;3.40;;
21299;SDS011;10809;49.476;11.016;2022-08-27T01:29:43;4.97;;;3.30;;
21299;SDS011;10809;49.476;11.016;2022-08-27T01:32:25;3.65;;;3.00;;
21299;SDS011;10809;49.476;11.016;2022-08-27T01:34:58;4.85;;;3.25;;
21299;SDS011;10809;49.476;11.016;2022-08-27T01:37:29;3.92;;;3.50;;
21299;SDS011;10809;49.476;11.016;2022-08-27T01:40:00;5.25;;;3.58;;
21299;SDS011;10809;49.476;11.016;2022-08-27T01:42:32;4.97;;;3.72;;
21299;SDS011;10809;49.476;11.016;2022-08-27T01:47:46;4.07;;;3.17;;
21299;SDS011;10809;49.476;11.016;2022-08-27T01:50:18;3.55;;;3.20;;
21299;SDS011;10809;49.476;11.016;2022-08-27T01:52:52;3.78;;;3.47;;
21299;SDS011;10809;49.476;11.016;2022-08-27T01:55:24;3.83;;;3.40;;
21299;SDS011;10809;49.476;11.016;2022-08-27T01:57:55;4.95;;;3.50;;
21299;SDS011;10809;49.476;11.016;2022-08-27T02:00:28;6.78;;;3.70;;
21299;SDS011;10809;49.476;11.016;2022-08-27T02:03:05;5.22;;;3.45;;
21299;SDS011;10809;49.476;11.016;2022-08-27T02:05:37;9.80;;;3.75;;
21299;SDS011;10809;49.476;11.016;2022-08-27T02:08:08;6.15;;;4.55;;
21299;SDS011;10809;49.476;11.016;2022-08-27T02:10:39;7.20;;;4.57;;
21299;SDS011;10809;49.476;11.016;2022-08-27T02:13:09;5.60;;;4.50;;
21299;SDS011;10809;49.476;11.016;2022-08-27T02:15:42;7.30;;;6.15;;
21299;SDS011;10809;49.476;11.016;2022-08-27T02:18:13;5.60;;;4.75;;
21299;SDS011;10809;49.476;11.016;2022-08-27T02:20:47;7.45;;;6.50;;
21299;SDS011;10809;49.476;11.016;2022-08-27T02:23:20;6.15;;;5.30;;
21299;SDS011;10809;49.476;11.016;2022-08-27T02:25:50;6.07;;;5.47;;
21299;SDS011;10809;49.476;11.016;2022-08-27T02:28:22;9.95;;;5.68;;
21299;SDS011;10809;49.476;11.016;2022-08-27T02:30:53;8.02;;;6.00;;
21299;SDS011;10809;49.476;11.016;2022-08-27T02:33:23;5.53;;;4.70;;
21299;SDS011;10809;49.476;11.016;2022-08-27T02:35:56;13.48;;;5.85;;
21299;SDS011;10809;49.476;11.016;2022-08-27T02:38:27;9.95;;;5.65;;
21299;SDS011;10809;49.476;11.016;2022-08-27T02:40:57;6.63;;;4.95;;
21299;SDS011;10809;49.476;11.016;2022-08-27T02:43:28;5.50;;;4.97;;
21299;SDS011;10809;49.476;11.016;2022-08-27T02:45:58;5.75;;;4.90;;
21299;SDS011;10809;49.476;11.016;2022-08-27T02:48:30;5.90;;;5.05;;
21299;SDS011;10809;49.476;11.016;2022-08-27T02:51:00;7.32;;;4.95;;
21299;SDS011;10809;49.476;11.016;2022-08-27T02:53:31;8.00;;;4.85;;
21299;SDS011;10809;49.476;11.016;2022-08-27T02:56:03;6.07;;;5.15;;
21299;SDS011;10809;49.476;11.016;2022-08-27T02:58:34;6.25;;;5.50;;
21299;SDS011;10809;49.476;11.016;2022-08-27T03:01:05;5.63;;;5.05;;
21299;SDS011;10809;49.476;11.016;2022-08-27T03:03:36;5.43;;;3.88;;
21299;SDS011;10809;49.476;11.016;2022-08-27T03:06:07;8.27;;;4.70;;
21299;SDS011;10809;49.476;11.016;2022-08-27T03:08:38;5.93;;;4.85;;
21299;SDS011;10809;49.476;11.016;2022-08-27T03:11:11;5.03;;;4.18;;
21299;SDS011;10809;49.476;11.016;2022-08-27T03:13:41;4.78;;;4.38;;
21299;SDS011;10809;49.476;11.016;2022-08-27T03:16:12;6.30;;;4.65;;
21299;SDS011;10809;49.476;11.016;2022-08-27T03:18:42;5.63;;;4.35;;
21299;SDS011;10809;49.476;11.016;2022-08-27T03:21:17;4.70;;;4.30;;
21299;SDS011;10809;49.476;11.016;2022-08-27T03:23:50;5.93;;;3.92;;
21299;SDS011;10809;49.476;11.016;2022-08-27T03:26:21;5.22;;;3.90;;
21299;SDS011;10809;49.476;11.016;2022-08-27T03:28:52;4.50;;;4.07;;
21299;SDS011;10809;49.476;11.016;2022-08-27T03:31:28;5.30;;;4.30;;
21299;SDS011;10809;49.476;11.016;2022-08-27T03:34:00;6.82;;;4.50;;
21299;SDS011;10809;49.476;11.016;2022-08-27T03:36:32;5.25;;;4.00;;
21299;SDS011;10809;49.476;11.016;2022-08-27T03:39:03;7.32;;;4.70;;
21299;SDS011;10809;49.476;11.016;2022-08-27T03:41:33;5.50;;;4.25;;
21299;SDS011;10809;49.476;11.016;2022-08-27T03:44:04;3.72;;;3.42;;
21299;SDS011;10809;49.476;11.016;2022-08-27T03:46:34;4.70;;;4.00;;
21299;SDS011;10809;49.476;11.016;2022-08-27T03:49:04;4.32;;;3.97;;
21299;SDS011;10809;49.476;11.016;2022-08-27T03:51:35;6.47;;;4.50;;
21299;SDS011;10809;49.476;11.016;2022-08-27T03:54:06;4.63;;;4.20;;
21299;SDS011;10809;49.476;11.016;2022-08-27T03:56:42;5.85;;;5.30;;
21299;SDS011;10809;49.476;11.016;2022-08-27T03:59:12;5.65;;;4.03;;
21299;SDS011;10809;49.476;11.016;2022-08-27T04:01:50;6.97;;;4.78;;
21299;SDS011;10809;49.476;11.016;2022-08-27T04:04:21;10.00;;;4.75;;
21299;SDS011;10809;49.476;11.016;2022-08-27T04:06:52;7.70;;;4.82;;
21299;SDS011;10809;49.476;11.016;2022-08-27T04:09:24;4.80;;;4.40;;
21299;SDS011;10809;49.476;11.016;2022-08-27T04:11:54;7.97;;;4.45;;
21299;SDS011;10809;49.476;11.016;2022-08-27T04:14:24;5.75;;;4.47;;
21299;SDS011;10809;49.476;11.016;2022-08-27T04:16:55;4.60;;;4.13;;
21299;SDS011;10809;49.476;11.016;2022-08-27T04:19:27;4.60;;;4.15;;
21299;SDS011;10809;49.476;11.016;2022-08-27T04:22:00;6.35;;;4.60;;
21299;SDS011;10809;49.476;11.016;2022-08-27T04:24:32;5.40;;;4.43;;
21299;SDS011;10809;49.476;11.016;2022-08-27T04:27:05;6.03;;;4.88;;
21299;SDS011;10809;49.476;11.016;2022-08-27T04:29:36;4.63;;;4.20;;
21299;SDS011;10809;49.476;11.016;2022-08-27T04:32:07;5.03;;;3.78;;
21299;SDS011;10809;49.476;11.016;2022-08-27T04:34:38;4.93;;;4.32;;
21299;SDS011;10809;49.476;11.016;2022-08-27T04:37:12;4.82;;;4.32;;
21299;SDS011;10809;49.476;11.016;2022-08-27T04:39:42;6.82;;;4.80;;
21299;SDS011;10809;49.476;11.016;2022-08-27T04:42:12;7.43;;;4.32;;
21299;SDS011;10809;49.476;11.016;2022-08-27T04:44:45;4.28;;;3.88;;
21299;SDS011;10809;49.476;11.016;2022-08-27T04:47:28;5.10;;;4.38;;
21299;SDS011;10809;49.476;11.016;2022-08-27T04:49:59;4.70;;;4.20;;
21299;SDS011;10809;49.476;11.016;2022-08-27T04:52:33;4.20;;;3.85;;
21299;SDS011;10809;49.476;11.016;2022-08-27T04:55:03;6.72;;;4.63;;
21299;SDS011;10809;49.476;11.016;2022-08-27T04:57:34;7.63;;;4.43;;
21299;SDS011;10809;49.476;11.016;2022-08-27T05:00:07;5.15;;;4.30;;
21299;SDS011;10809;49.476;11.016;2022-08-27T05:02:38;4.00;;;3.60;;
21299;SDS011;10809;49.476;11.016;2022-08-27T05:05:08;4.30;;;3.90;;
21299;SDS011;10809;49.476;11.016;2022-08-27T05:07:40;5.60;;;4.35;;
21299;SDS011;10809;49.476;11.016;2022-08-27T05:10:13;6.75;;;4.55;;
21299;SDS011;10809;49.476;11.016;2022-08-27T05:12:43;5.38;;;4.32;;
21299;SDS011;10809;49.476;11.016;2022-08-27T05:15:14;5.00;;;4.55;;
21299;SDS011;10809;49.476;11.016;2022-08-27T05:17:44;4.07;;;3.67;;
21299;SDS011;10809;49.476;11.016;2022-08-27T05:20:16;4.22;;;3.83;;
21299;SDS011;10809;49.476;11.016;2022-08-27T05:22:46;5.22;;;4.10;;
21299;SDS011;10809;49.476;11.016;2022-08-27T05:25:18;6.80;;;3.80;;
21299;SDS011;10809;49.476;11.016;2022-08-27T05:27:51;8.57;;;4.35;;
21299;SDS011;10809;49.476;11.016;2022-08-27T05:30:22;4.80;;;4.30;;
21299;SDS011;10809;49.476;11.016;2022-08-27T05:32:58;6.85;;;5.03;;
21299;SDS011;10809;49.476;11.016;2022-08-27T05:35:28;5.88;;;4.60;;
21299;SDS011;10809;49.476;11.016;2022-08-27T05:38:00;4.85;;;4.40;;
21299;SDS011;10809;49.476;11.016;2022-08-27T05:40:30;6.47;;;4.70;;
21299;SDS011;10809;49.476;11.016;2022-08-27T05:43:01;4.43;;;4.03;;
21299;SDS011;10809;49.476;11.016;2022-08-27T05:45:38;6.05;;;4.85;;
21299;SDS011;10809;49.476;11.016;2022-08-27T05:48:13;6.95;;;4.50;;
21299;SDS011;10809;49.476;11.016;2022-08-27T05:50:45;7.90;;;4.70;;
21299;SDS011;10809;49.476;11.016;2022-08-27T05:53:15;6.55;;;4.70;;
21299;SDS011;10809;49.476;11.016;2022-08-27T05:55:45;7.97;;;5.40;;
21299;SDS011;10809;49.476;11.016;2022-08-27T05:58:19;6.03;;;4.75;;
21299;SDS011;10809;49.476;11.016;2022-08-27T06:01:08;8.75;;;5.47;;
21299;SDS011;10809;49.476;11.016;2022-08-27T06:03:38;5.88;;;4.63;;
21299;SDS011;10809;49.476;11.016;2022-08-27T06:06:11;7.55;;;5.28;;
21299;SDS011;10809;49.476;11.016;2022-08-27T06:08:43;5.80;;;4.65;;
21299;SDS011;10809;49.476;11.016;2022-08-27T06:11:13;7.95;;;5.57;;
21299;SDS011;10809;49.476;11.016;2022-08-27T06:13:44;6.80;;;5.45;;
21299;SDS011;10809;49.476;11.016;2022-08-27T06:16:16;6.22;;;5.53;;
21299;SDS011;10809;49.476;11.016;2022-08-27T06:18:50;6.55;;;5.72;;
21299;SDS011;10809;49.476;11.016;2022-08-27T06:21:22;6.93;;;5.32;;
21299;SDS011;10809;49.476;11.016;2022-08-27T06:23:53;6.68;;;5.97;;
21299;SDS011;10809;49.476;11.016;2022-08-27T06:26:24;9.40;;;6.07;;
21299;SDS011;10809;49.476;11.016;2022-08-27T06:28:56;7.03;;;6.22;;
21299;SDS011;10809;49.476;11.016;2022-08-27T06:31:32;8.00;;;5.85;;
21299;SDS011;10809;49.476;11.016;2022-08-27T06:34:05;5.90;;;5.10;;
21299;SDS011;10809;49.476;11.016;2022-08-27T06:36:38;9.90;;;6.50;;
21299;SDS011;10809;49.476;11.016;2022-08-27T06:39:10;7.72;;;5.72;;
21299;SDS011;10809;49.476;11.016;2022-08-27T06:41:44;11.80;;;6.68;;
21299;SDS011;10809;49.476;11.016;2022-08-27T06:44:15;8.50;;;5.65;;
21299;SDS011;10809;49.476;11.016;2022-08-27T06:46:46;9.10;;;6.57;;
21299;SDS011;10809;49.476;11.016;2022-08-27T06:49:17;8.10;;;6.95;;
21299;SDS011;10809;49.476;11.016;2022-08-27T06:51:47;7.40;;;6.03;;
21299;SDS011;10809;49.476;11.016;2022-08-27T06:54:17;6.68;;;5.65;;
21299;SDS011;10809;49.476;11.016;2022-08-27T06:56:49;6.93;;;5.80;;
21299;SDS011;10809;49.476;11.016;2022-08-27T06:59:19;9.10;;;6.47;;
21299;SDS011;10809;49.476;11.016;2022-08-27T07:01:50;9.90;;;6.32;;
21299;SDS011;10809;49.476;11.016;2022-08-27T07:04:21;7.28;;;5.75;;
21299;SDS011;10809;49.476;11.016;2022-08-27T07:06:54;8.65;;;7.20;;
21299;SDS011;10809;49.476;11.016;2022-08-27T07:09:24;7.82;;;6.75;;
21299;SDS011;10809;49.476;11.016;2022-08-27T07:11:54;6.25;;;5.40;;
21299;SDS011;10809;49.476;11.016;2022-08-27T07:14:29;13.73;;;6.55;;
21299;SDS011;10809;49.476;11.016;2022-08-27T07:16:59;8.98;;;6.40;;
21299;SDS011;10809;49.476;11.016;2022-08-27T07:19:30;8.32;;;6.78;;
21299;SDS011;10809;49.476;11.016;2022-08-27T07:22:01;11.73;;;7.80;;
21299;SDS011;10809;49.476;11.016;2022-08-27T07:24:32;9.13;;;6.68;;
21299;SDS011;10809;49.476;11.016;2022-08-27T07:27:02;7.05;;;6.35;;
21299;SDS011;10809;49.476;11.016;2022-08-27T07:29:32;8.63;;;6.78;;
21299;SDS011;10809;49.476;11.016;2022-08-27T07:32:04;8.10;;;7.30;;
21299;SDS011;10809;49.476;11.016;2022-08-27T07:34:34;8.05;;;7.15;;
21299;SDS011;10809;49.476;11.016;2022-08-27T07:37:05;9.10;;;7.15;;
21299;SDS011;10809;49.476;11.016;2022-08-27T07:39:38;9.93;;;7.38;;
21299;SDS011;10809;49.476;11.016;2022-08-27T07:42:09;9.77;;;6.88;;
21299;SDS011;10809;49.476;11.016;2022-08-27T07:44:58;11.45;;;8.07;;
21299;SDS011;10809;49.476;11.016;2022-08-27T07:47:28;8.68;;;7.70;;
21299;SDS011;10809;49.476;11.016;2022-08-27T07:50:06;10.07;;;7.25;;
21299;SDS011;10809;49.476;11.016;2022-08-27T07:52:37;7.85;;;6.78;;
21299;SDS011;10809;49.476;11.016;2022-08-27T07:55:08;21.70;;;8.70;;
21299;SDS011;10809;49.476;11.016;2022-08-27T07:57:39;12.38;;;8.20;;
21299;SDS011;10809;49.476;11.016;2022-08-27T08:00:17;9.07;;;7.65;;
21299;SDS011;10809;49.476;11.016;2022-08-27T08:02:48;8.05;;;6.80;;
21299;SDS011;10809;49.476;11.016;2022-08-27T08:05:18;10.65;;;8.30;;
21299;SDS011;10809;49.476;11.016;2022-08-27T08:07:49;14.43;;;8.20;;
21299;SDS011;10809;49.476;11.016;2022-08-27T08:10:21;11.23;;;8.55;;
21299;SDS011;10809;49.476;11.016;2022-08-27T08:12:52;12.77;;;9.35;;
21299;SDS011;10809;49.476;11.016;2022-08-27T08:15:22;11.55;;;9.23;;
21299;SDS011;10809;49.476;11.016;2022-08-27T08:17:53;12.32;;;9.02;;
21299;SDS011;10809;49.476;11.016;2022-08-27T08:20:23;13.45;;;10.13;;
21299;SDS011;10809;49.476;11.016;2022-08-27T08:22:54;14.65;;;10.13;;
21299;SDS011;10809;49.476;11.016;2022-08-27T08:25:28;12.32;;;9.77;;
21299;SDS011;10809;49.476;11.016;2022-08-27T08:28:00;12.57;;;10.35;;
21299;SDS011;10809;49.476;11.016;2022-08-27T08:30:33;11.75;;;8.48;;
21299;SDS011;10809;49.476;11.016;2022-08-27T08:33:04;13.15;;;9.30;;
21299;SDS011;10809;49.476;11.016;2022-08-27T08:35:36;13.95;;;9.50;;
21299;SDS011;10809;49.476;11.016;2022-08-27T08:38:07;13.07;;;9.73;;
21299;SDS011;10809;49.476;11.016;2022-08-27T08:40:39;10.93;;;9.32;;
21299;SDS011;10809;49.476;11.016;2022-08-27T08:43:18;10.90;;;9.07;;
21299;SDS011;10809;49.476;11.016;2022-08-27T08:48:48;11.27;;;8.02;;
21299;SDS011;10809;49.476;11.016;2022-08-27T08:51:22;7.20;;;6.43;;
21299;SDS011;10809;49.476;11.016;2022-08-27T08:54:02;14.02;;;10.02;;
21299;SDS011;10809;49.476;11.016;2022-08-27T08:59:36;12.05;;;8.98;;
21299;SDS011;10809;49.476;11.016;2022-08-27T09:02:10;9.57;;;8.07;;
21299;SDS011;10809;49.476;11.016;2022-08-27T09:04:43;16.20;;;9.02;;
21299;SDS011;10809;49.476;11.016;2022-08-27T09:07:16;12.52;;;8.15;;
21299;SDS011;10809;49.476;11.016;2022-08-27T09:12:28;12.50;;;9.23;;
21299;SDS011;10809;49.476;11.016;2022-08-27T09:15:06;14.35;;;8.50;;
21299;SDS011;10809;49.476;11.016;2022-08-27T09:18:11;9.68;;;8.38;;
21299;SDS011;10809;49.476;11.016;2022-08-27T09:27:37;10.30;;;8.07;;
21299;SDS011;10809;49.476;11.016;2022-08-27T09:30:12;11.80;;;8.80;;
21299;SDS011;10809;49.476;11.016;2022-08-27T09:45:20;8.15;;;7.28;;
21299;SDS011;10809;49.476;11.016;2022-08-27T09:48:06;9.35;;;7.63;;
21299;SDS011;10809;49.476;11.016;2022-08-27T09:53:46;8.25;;;7.43;;
21299;SDS011;10809;49.476;11.016;2022-08-27T09:56:31;7.30;;;6.05;;
21299;SDS011;10809;49.476;11.016;2022-08-27T10:18:32;5.85;;;4.53;;
21299;SDS011;10809;49.476;11.016;2022-08-27T10:27:24;4.18;;;3.80;;
21299;SDS011;10809;49.476;11.016;2022-08-27T10:32:54;12.68;;;3.17;;
21299;SDS011;10809;49.476;11.016;2022-08-27T10:38:22;3.50;;;2.85;;
21299;SDS011;10809;49.476;11.016;2022-08-27T10:41:06;2.92;;;2.72;;
21299;SDS011;10809;49.476;11.016;2022-08-27T10:43:58;3.38;;;2.95;;
21299;SDS011;10809;49.476;11.016;2022-08-27T10:46:59;3.97;;;2.33;;
21299;SDS011;10809;49.476;11.016;2022-08-27T10:49:41;3.05;;;2.78;;
21299;SDS011;10809;49.476;11.016;2022-08-27T10:52:24;3.03;;;2.83;;
21299;SDS011;10809;49.476;11.016;2022-08-27T10:55:11;3.47;;;3.17;;
21299;SDS011;10809;49.476;11.016;2022-08-27T11:03:42;3.55;;;3.25;;
21299;SDS011;10809;49.476;11.016;2022-08-27T11:09:16;5.18;;;3.92;;
21299;SDS011;10809;49.476;11.016;2022-08-27T11:11:50;3.55;;;3.25;;
21299;SDS011;10809;49.476;11.016;2022-08-27T11:14:42;4.53;;;4.07;;
21299;SDS011;10809;49.476;11.016;2022-08-27T11:17:39;4.50;;;3.80;;
21299;SDS011;10809;49.476;11.016;2022-08-27T11:20:35;2.72;;;2.53;;
21299;SDS011;10809;49.476;11.016;2022-08-27T11:23:16;3.63;;;2.72;;
21299;SDS011;10809;49.476;11.016;2022-08-27T11:25:55;2.72;;;2.53;;
21299;SDS011;10809;49.476;11.016;2022-08-27T11:39:29;3.13;;;2.92;;
21299;SDS011;10809;49.476;11.016;2022-08-27T11:44:45;3.33;;;3.03;;
21299;SDS011;10809;49.476;11.016;2022-08-27T11:47:19;3.55;;;3.25;;
21299;SDS011;10809;49.476;11.016;2022-08-27T11:49:54;4.30;;;2.80;;
21299;SDS011;10809;49.476;11.016;2022-08-27T12:00:39;3.50;;;1.90;;
21299;SDS011;10809;49.476;11.016;2022-08-27T12:03:30;1.85;;;1.70;;
21299;SDS011;10809;49.476;11.016;2022-08-27T12:06:19;2.45;;;2.25;;
21299;SDS011;10809;49.476;11.016;2022-08-27T12:09:04;2.30;;;2.10;;
21299;SDS011;10809;49.476;11.016;2022-08-27T12:14:44;2.00;;;1.90;;
21299;SDS011;10809;49.476;11.016;2022-08-27T12:17:22;2.67;;;2.47;;
21299;SDS011;10809;49.476;11.016;2022-08-27T12:23:18;3.35;;;3.08;;
21299;SDS011;10809;49.476;11.016;2022-08-27T12:32:03;2.50;;;2.28;;
21299;SDS011;10809;49.476;11.016;2022-08-27T12:34:46;2.25;;;2.13;;
21299;SDS011;10809;49.476;11.016;2022-08-27T12:37:23;1.75;;;1.65;;
21299;SDS011;10809;49.476;11.016;2022-08-27T12:39:58;2.47;;;2.25;;
21299;SDS011;10809;49.476;11.016;2022-08-27T12:42:32;1.88;;;1.77;;
21299;SDS011;10809;49.476;11.016;2022-08-27T12:45:02;2.90;;;2.25;;
21299;SDS011;10809;49.476;11.016;2022-08-27T12:47:36;2.58;;;2.38;;
21299;SDS011;10809;49.476;11.016;2022-08-27T12:50:10;7.28;;;1.67;;
21299;SDS011;10809;49.476;11.016;2022-08-27T12:58:30;2.60;;;1.75;;
21299;SDS011;10809;49.476;11.016;2022-08-27T13:03:57;1.85;;;1.65;;
21299;SDS011;10809;49.476;11.016;2022-08-27T13:06:35;1.63;;;1.52;;
21299;SDS011;10809;49.476;11.016;2022-08-27T13:12:13;2.08;;;1.98;;
21299;SDS011;10809;49.476;11.016;2022-08-27T13:14:47;2.33;;;2.13;;
21299;SDS011;10809;49.476;11.016;2022-08-27T13:17:19;6.63;;;2.13;;
21299;SDS011;10809;49.476;11.016;2022-08-27T13:19:56;2.85;;;2.10;;
21299;SDS011;10809;49.476;11.016;2022-08-27T13:22:29;1.88;;;1.77;;
21299;SDS011;10809;49.476;11.016;2022-08-27T13:31:19;2.05;;;1.88;;
21299;SDS011;10809;49.476;11.016;2022-08-27T13:33:57;1.95;;;1.85;;
21299;SDS011;10809;49.476;11.016;2022-08-27T13:36:30;2.67;;;2.30;;
21299;SDS011;10809;49.476;11.016;2022-08-27T13:39:03;2.10;;;1.85;;
21299;SDS011;10809;49.476;11.016;2022-08-27T13:41:36;1.98;;;1.80;;
21299;SDS011;10809;49.476;11.016;2022-08-27T13:44:16;2.40;;;2.20;;
21299;SDS011;10809;49.476;11.016;2022-08-27T13:49:39;2.70;;;2.00;;
21299;SDS011;10809;49.476;11.016;2022-08-27T13:57:46;2.47;;;2.10;;
21299;SDS011;10809;49.476;11.016;2022-08-27T14:02:53;1.80;;;1.70;;
21299;SDS011;10809;49.476;11.016;2022-08-27T14:08:15;1.83;;;1.70;;
21299;SDS011;10809;49.476;11.016;2022-08-27T14:10:48;2.20;;;1.95;;
21299;SDS011;10809;49.476;11.016;2022-08-27T14:13:28;1.83;;;1.73;;
21299;SDS011;10809;49.476;11.016;2022-08-27T14:16:15;2.13;;;1.55;;
21299;SDS011;10809;49.476;11.016;2022-08-27T14:19:13;1.10;;;1.10;;
21299;SDS011;10809;49.476;11.016;2022-08-27T14:21:55;1.58;;;1.48;;
21299;SDS011;10809;49.476;11.016;2022-08-27T14:24:32;1.90;;;1.80;;
21299;SDS011;10809;49.476;11.016;2022-08-27T14:27:04;1.98;;;1.50;;
21299;SDS011;10809;49.476;11.016;2022-08-27T14:29:39;1.98;;;1.88;;
21299;SDS011;10809;49.476;11.016;2022-08-27T14:32:09;1.77;;;1.67;;
21299;SDS011;10809;49.476;11.016;2022-08-27T14:34:40;5.55;;;1.67;;
21299;SDS011;10809;49.476;11.016;2022-08-27T14:37:11;2.00;;;1.80;;
21299;SDS011;10809;49.476;11.016;2022-08-27T14:42:34;4.80;;;1.92;;
21299;SDS011;10809;49.476;11.016;2022-08-27T14:45:05;2.15;;;2.05;;
21299;SDS011;10809;49.476;11.016;2022-08-27T14:47:37;2.90;;;2.63;;
21299;SDS011;10809;49.476;11.016;2022-08-27T14:50:10;2.38;;;2.17;;
21299;SDS011;10809;49.476;11.016;2022-08-27T14:52:41;2.22;;;2.03;;
21299;SDS011;10809;49.476;11.016;2022-08-27T14:55:12;2.40;;;2.20;;
21299;SDS011;10809;49.476;11.016;2022-08-27T14:57:43;2.03;;;1.50;;
21299;SDS011;10809;49.476;11.016;2022-08-27T15:00:13;2.03;;;1.90;;
21299;SDS011;10809;49.476;11.016;2022-08-27T15:02:46;1.88;;;1.73;;
21299;SDS011;10809;49.476;11.016;2022-08-27T15:05:17;2.45;;;2.13;;
21299;SDS011;10809;49.476;11.016;2022-08-27T15:07:48;2.75;;;2.22;;
21299;SDS011;10809;49.476;11.016;2022-08-27T15:10:19;2.35;;;2.15;;
21299;SDS011;10809;49.476;11.016;2022-08-27T15:12:49;3.55;;;2.13;;
21299;SDS011;10809;49.476;11.016;2022-08-27T15:15:21;2.88;;;2.30;;
21299;SDS011;10809;49.476;11.016;2022-08-27T15:17:52;3.15;;;1.83;;
21299;SDS011;10809;49.476;11.016;2022-08-27T15:20:25;3.28;;;3.05;;
21299;SDS011;10809;49.476;11.016;2022-08-27T15:22:55;2.80;;;2.40;;
21299;SDS011;10809;49.476;11.016;2022-08-27T15:25:29;5.90;;;2.45;;
21299;SDS011;10809;49.476;11.016;2022-08-27T15:28:09;2.28;;;1.90;;
21299;SDS011;10809;49.476;11.016;2022-08-27T15:30:39;2.15;;;1.77;;
21299;SDS011;10809;49.476;11.016;2022-08-27T15:33:10;2.20;;;2.08;;
21299;SDS011;10809;49.476;11.016;2022-08-27T15:35:43;2.47;;;1.70;;
21299;SDS011;10809;49.476;11.016;2022-08-27T15:38:14;3.90;;;2.30;;
21299;SDS011;10809;49.476;11.016;2022-08-27T15:40:44;5.28;;;2.08;;
21299;SDS011;10809;49.476;11.016;2022-08-27T15:43:14;6.80;;;2.15;;
21299;SDS011;10809;49.476;11.016;2022-08-27T15:45:45;2.85;;;2.15;;
21299;SDS011;10809;49.476;11.016;2022-08-27T15:48:16;2.00;;;1.85;;
21299;SDS011;10809;49.476;11.016;2022-08-27T15:50:46;3.42;;;2.05;;
21299;SDS011;10809;49.476;11.016;2022-08-27T15:53:17;3.95;;;2.10;;
21299;SDS011;10809;49.476;11.016;2022-08-27T15:55:50;1.90;;;1.70;;
21299;SDS011;10809;49.476;11.016;2022-08-27T15:58:20;2.08;;;1.92;;
21299;SDS011;10809;49.476;11.016;2022-08-27T16:00:51;2.33;;;2.10;;
21299;SDS011;10809;49.476;11.016;2022-08-27T16:03:22;2.65;;;2.03;;
21299;SDS011;10809;49.476;11.016;2022-08-27T16:06:00;2.08;;;1.98;;
21299;SDS011;10809;49.476;11.016;2022-08-27T16:08:31;3.72;;;2.33;;
21299;SDS011;10809;49.476;11.016;2022-08-27T16:11:02;3.30;;;2.00;;
21299;SDS011;10809;49.476;11.016;2022-08-27T16:13:32;2.63;;;2.20;;
21299;SDS011;10809;49.476;11.016;2022-08-27T16:16:03;3.30;;;2.60;;
21299;SDS011;10809;49.476;11.016;2022-08-27T16:18:35;2.05;;;1.90;;
21299;SDS011;10809;49.476;11.016;2022-08-27T16:21:08;2.78;;;2.03;;
21299;SDS011;10809;49.476;11.016;2022-08-27T16:23:38;2.45;;;2.33;;
21299;SDS011;10809;49.476;11.016;2022-08-27T16:26:09;2.20;;;2.00;;
21299;SDS011;10809;49.476;11.016;2022-08-27T16:28:39;2.78;;;1.77;;
21299;SDS011;10809;49.476;11.016;2022-08-27T16:31:10;1.15;;;1.08;;
21299;SDS011;10809;49.476;11.016;2022-08-27T16:33:42;0.85;;;0.85;;
21299;SDS011;10809;49.476;11.016;2022-08-27T16:36:12;1.20;;;1.10;;
21299;SDS011;10809;49.476;11.016;2022-08-27T16:38:43;6.13;;;1.75;;
21299;SDS011;10809;49.476;11.016;2022-08-27T16:41:14;7.15;;;2.95;;
21299;SDS011;10809;49.476;11.016;2022-08-27T16:43:45;4.50;;;2.08;;
21299;SDS011;10809;49.476;11.016;2022-08-27T16:46:17;7.25;;;2.67;;
21299;SDS011;10809;49.476;11.016;2022-08-27T16:48:47;4.15;;;2.60;;
21299;SDS011;10809;49.476;11.016;2022-08-27T16:51:37;4.30;;;2.08;;
21299;SDS011;10809;49.476;11.016;2022-08-27T16:54:21;4.53;;;2.42;;
21299;SDS011;10809;49.476;11.016;2022-08-27T16:56:52;5.47;;;1.67;;
21299;SDS011;10809;49.476;11.016;2022-08-27T16:59:22;4.53;;;2.08;;
21299;SDS011;10809;49.476;11.016;2022-08-27T17:01:53;2.10;;;2.00;;
21299;SDS011;10809;49.476;11.016;2022-08-27T17:04:24;2.92;;;1.90;;
21299;SDS011;10809;49.476;11.016;2022-08-27T17:06:55;2.80;;;2.10;;
21299;SDS011;10809;49.476;11.016;2022-08-27T17:09:29;8.77;;;2.30;;
21299;SDS011;10809;49.476;11.016;2022-08-27T17:12:00;3.05;;;1.83;;
21299;SDS011;10809;49.476;11.016;2022-08-27T17:14:33;4.00;;;2.63;;
21299;SDS011;10809;49.476;11.016;2022-08-27T17:17:06;2.17;;;2.00;;
21299;SDS011;10809;49.476;11.016;2022-08-27T17:19:38;3.90;;;2.85;;
21299;SDS011;10809;49.476;11.016;2022-08-27T17:22:08;6.88;;;3.42;;
21299;SDS011;10809;49.476;11.016;2022-08-27T17:24:39;5.47;;;2.40;;
21299;SDS011;10809;49.476;11.016;2022-08-27T17:27:09;3.15;;;2.65;;
21299;SDS011;10809;49.476;11.016;2022-08-27T17:29:40;3.33;;;2.50;;
21299;SDS011;10809;49.476;11.016;2022-08-27T17:32:10;2.97;;;2.30;;
21299;SDS011;10809;49.476;11.016;2022-08-27T17:34:40;3.00;;;2.60;;
21299;SDS011;10809;49.476;11.016;2022-08-27T17:37:11;6.10;;;2.47;;
21299;SDS011;10809;49.476;11.016;2022-08-27T17:39:41;2.45;;;2.25;;